createdAt,value
2023-04-13T00:01:09.498Z,3.53
2023-04-13T00:07:04.044Z,5.07
2023-04-13T00:12:58.670Z,3.27
2023-04-13T00:18:53.615Z,2.80
2023-04-13T00:24:48.428Z,4.90
2023-04-13T00:30:42.021Z,3.80
2023-04-13T00:36:36.953Z,4.63
2023-04-13T00:42:30.443Z,3.43
2023-04-13T00:48:24.705Z,3.23
2023-04-13T00:54:20.780Z,3.77
2023-04-13T01:00:15.249Z,3.10
2023-04-13T01:06:18.204Z,4.13
2023-04-13T01:12:19.423Z,3.57
2023-04-13T01:18:16.004Z,3.87
2023-04-13T01:24:22.100Z,6.40
2023-04-13T01:30:19.903Z,5.60
2023-04-13T01:36:14.906Z,5.97
2023-04-13T01:42:08.775Z,5.63
2023-04-13T01:48:12.109Z,7.40
2023-04-13T01:54:35.541Z,8.40
2023-04-13T02:00:35.839Z,7.83
2023-04-13T02:06:33.178Z,6.17
2023-04-13T02:12:31.182Z,9.93
2023-04-13T02:18:25.381Z,5.50
2023-04-13T02:24:20.273Z,9.10
2023-04-13T02:30:14.328Z,7.30
2023-04-13T02:36:09.572Z,7.83
2023-04-13T02:42:07.421Z,7.00
2023-04-13T02:48:01.077Z,8.50
2023-04-13T02:53:57.722Z,9.23
2023-04-13T02:59:53.136Z,8.00
2023-04-13T03:05:50.948Z,7.40
2023-04-13T03:11:48.237Z,7.87
2023-04-13T03:17:50.006Z,9.80
2023-04-13T03:23:48.484Z,9.43
2023-04-13T03:29:43.697Z,10.43
2023-04-13T03:35:44.206Z,9.43
2023-04-13T03:41:47.144Z,7.80
2023-04-13T03:47:41.143Z,12.23
2023-04-13T03:53:39.006Z,8.40
2023-04-13T03:59:32.779Z,8.63
2023-04-13T04:05:26.656Z,11.80
2023-04-13T04:11:28.367Z,10.90
2023-04-13T04:17:22.848Z,14.17
2023-04-13T04:23:19.777Z,11.10
2023-04-13T04:29:29.813Z,13.83
2023-04-13T04:35:26.564Z,11.63
2023-04-13T04:41:21.495Z,13.67
2023-04-13T04:47:21.546Z,12.53
2023-04-13T04:53:38.012Z,15.70
2023-04-13T04:59:34.717Z,12.37
2023-04-13T05:05:31.387Z,12.60
2023-04-13T05:11:29.592Z,12.90
2023-04-13T05:17:25.828Z,11.23
2023-04-13T05:23:21.085Z,10.73
2023-04-13T05:29:21.581Z,13.30
2023-04-13T05:35:16.532Z,12.67
2023-04-13T05:41:12.025Z,11.43
2023-04-13T05:47:06.050Z,14.60
2023-04-13T05:53:00.378Z,11.83
2023-04-13T05:59:04.065Z,8.30
2023-04-13T06:04:57.376Z,7.40
2023-04-13T06:10:51.118Z,9.43
2023-04-13T06:16:46.632Z,10.97
2023-04-13T06:22:39.833Z,6.53
2023-04-13T06:28:34.027Z,7.53
2023-04-13T06:34:28.565Z,7.53
2023-04-13T06:40:23.778Z,4.97
2023-04-13T06:46:28.068Z,6.13
2023-04-13T06:52:28.264Z,5.00
2023-04-13T06:58:22.909Z,3.67
2023-04-13T07:04:16.317Z,3.50
2023-04-13T07:10:12.924Z,5.47
2023-04-13T07:16:08.821Z,3.40
2023-04-13T07:22:05.022Z,2.90
2023-04-13T07:28:01.669Z,3.00
2023-04-13T07:33:55.373Z,4.03
2023-04-13T07:39:56.521Z,1.83
2023-04-13T07:45:52.764Z,3.00
2023-04-13T07:51:46.416Z,2.97
2023-04-13T07:57:42.302Z,2.40
2023-04-13T08:03:38.862Z,4.23
2023-04-13T08:09:41.396Z,1.93
2023-04-13T08:15:35.501Z,3.13
2023-04-13T08:21:30.874Z,1.97
2023-04-13T08:27:24.430Z,2.57
2023-04-13T08:33:18.057Z,1.53
2023-04-13T08:39:13.351Z,1.73
2023-04-13T08:45:10.034Z,2.00
2023-04-13T08:51:07.342Z,1.20
2023-04-13T08:57:03.690Z,1.30
2023-04-13T09:03:06.115Z,1.87
2023-04-13T09:09:06.280Z,3.30
2023-04-13T09:15:02.047Z,0.90
2023-04-13T09:20:59.450Z,2.27
2023-04-13T09:26:53.151Z,1.23
2023-04-13T09:32:47.760Z,2.30
2023-04-13T09:38:40.932Z,1.67
2023-04-13T09:44:36.372Z,3.20
2023-04-13T09:50:32.710Z,2.03
2023-04-13T09:56:27.146Z,1.00
2023-04-13T10:02:21.174Z,2.10
2023-04-13T10:08:21.759Z,1.97
2023-04-13T10:14:24.646Z,1.37
2023-04-13T10:20:19.028Z,3.27
2023-04-13T10:26:13.598Z,1.53
2023-04-13T10:32:08.383Z,2.00
2023-04-13T10:38:01.754Z,1.20
2023-04-13T10:44:04.089Z,1.30
2023-04-13T10:49:59.147Z,2.63
2023-04-13T10:55:53.208Z,1.20
2023-04-13T11:01:48.180Z,1.90
2023-04-13T11:07:42.348Z,2.60
2023-04-13T11:13:35.430Z,6.03
2023-04-13T11:19:29.947Z,1.67
2023-04-13T11:25:23.463Z,2.20
2023-04-13T11:31:17.156Z,1.63
2023-04-13T11:37:12.282Z,1.20
2023-04-13T11:43:07.628Z,1.27
2023-04-13T11:49:02.152Z,0.93
2023-04-13T11:54:57.980Z,0.80
2023-04-13T12:00:56.983Z,1.43
2023-04-13T12:06:54.133Z,1.00
2023-04-13T12:12:57.202Z,1.60
2023-04-13T12:18:52.118Z,0.90
2023-04-13T12:24:45.881Z,1.63
2023-04-13T12:30:40.821Z,1.17
2023-04-13T12:36:36.745Z,2.10
2023-04-13T12:42:29.904Z,1.53
2023-04-13T12:48:24.804Z,1.90
2023-04-13T12:54:18.479Z,1.20
2023-04-13T13:00:12.689Z,1.37
2023-04-13T13:06:08.076Z,2.60
2023-04-13T13:12:02.958Z,1.50
2023-04-13T13:17:56.055Z,1.37
2023-04-13T13:23:50.980Z,2.27
2023-04-13T13:29:44.963Z,1.70
2023-04-13T13:35:38.505Z,2.63
2023-04-13T13:41:33.402Z,2.20
2023-04-13T13:47:26.945Z,2.70
2023-04-13T13:53:22.004Z,2.20
2023-04-13T13:59:17.562Z,3.50
2023-04-13T14:05:13.171Z,2.40
2023-04-13T14:11:06.614Z,2.50
2023-04-13T14:17:01.051Z,1.70
2023-04-13T14:22:54.592Z,1.60
2023-04-13T14:28:47.932Z,1.97
2023-04-13T14:34:46.542Z,2.30
2023-04-13T14:40:41.338Z,1.80
2023-04-13T14:46:34.882Z,3.30
2023-04-13T14:52:29.515Z,1.87
2023-04-13T14:58:22.802Z,1.37
2023-04-13T15:04:17.356Z,0.80
2023-04-13T15:10:12.649Z,1.53
2023-04-13T15:16:08.082Z,0.93
2023-04-13T15:22:01.307Z,3.93
2023-04-13T15:27:58.054Z,2.00
2023-04-13T15:33:52.190Z,1.93
2023-04-13T15:39:45.246Z,1.93
2023-04-13T15:45:39.721Z,2.60
2023-04-13T15:51:33.432Z,2.33
2023-04-13T15:57:26.970Z,1.40
2023-04-13T16:03:22.079Z,3.10
2023-04-13T16:09:15.676Z,2.00
2023-04-13T16:15:11.871Z,1.73
2023-04-13T16:21:06.971Z,1.83
2023-04-13T16:27:00.074Z,1.27
2023-04-13T16:32:53.635Z,1.83
2023-04-13T16:38:48.271Z,2.10
2023-04-13T16:44:41.824Z,5.03
2023-04-13T16:50:34.886Z,2.47
2023-04-13T16:56:31.563Z,3.03
2023-04-13T17:02:30.966Z,2.13
2023-04-13T17:08:25.188Z,1.47
2023-04-13T17:14:20.133Z,1.20
2023-04-13T17:20:16.789Z,1.73
2023-04-13T17:26:10.146Z,1.90
2023-04-13T17:32:05.611Z,1.17
2023-04-13T17:37:59.275Z,0.77
2023-04-13T17:43:52.332Z,1.00
2023-04-13T17:49:47.315Z,0.97
2023-04-13T17:55:40.493Z,1.80
2023-04-13T18:01:34.194Z,0.90
2023-04-13T18:07:28.766Z,1.40
2023-04-13T18:13:22.487Z,1.60
2023-04-13T18:19:16.071Z,1.53
2023-04-13T18:25:11.272Z,2.07
2023-04-13T18:31:05.890Z,1.57
2023-04-13T18:36:59.615Z,2.90
2023-04-13T18:42:54.016Z,1.60
2023-04-13T18:48:47.120Z,2.37
2023-04-13T18:54:41.351Z,1.90
2023-04-13T19:00:36.261Z,1.83
2023-04-13T19:06:29.481Z,2.10
2023-04-13T19:12:22.978Z,2.90
2023-04-13T19:18:18.118Z,2.60
2023-04-13T19:24:13.679Z,3.57
2023-04-13T19:30:10.101Z,5.63
2023-04-13T19:36:06.879Z,4.73
2023-04-13T19:42:00.238Z,7.50
2023-04-13T19:47:53.549Z,4.60
2023-04-13T19:53:48.050Z,5.07
2023-04-13T19:59:43.678Z,4.13
2023-04-13T20:05:38.636Z,5.50
2023-04-13T20:11:33.060Z,6.67
2023-04-13T20:17:26.635Z,5.10
2023-04-13T20:23:19.790Z,4.40
2023-04-13T20:29:17.078Z,5.23
2023-04-13T20:35:11.469Z,5.37
2023-04-13T20:41:05.238Z,5.30
2023-04-13T20:47:02.089Z,4.10
2023-04-13T20:52:56.686Z,3.50
2023-04-13T20:58:50.049Z,3.87
2023-04-13T21:04:44.971Z,1.47
2023-04-13T21:10:38.076Z,1.60
2023-04-13T21:16:31.366Z,2.27
2023-04-13T21:22:25.941Z,2.20
2023-04-13T21:28:19.445Z,2.13
2023-04-13T21:34:12.949Z,2.13
2023-04-13T21:40:08.833Z,2.00
2023-04-13T21:46:02.446Z,1.83
2023-04-13T21:51:55.553Z,2.27
2023-04-13T21:57:50.485Z,2.23
2023-04-13T22:03:46.437Z,2.60
2023-04-13T22:09:39.654Z,2.33
2023-04-13T22:15:34.145Z,2.60
2023-04-13T22:21:28.419Z,1.80
2023-04-13T22:27:22.140Z,2.63
2023-04-13T22:33:16.587Z,2.30
2023-04-13T22:39:09.747Z,2.27
2023-04-13T22:45:03.224Z,2.70
2023-04-13T22:50:57.820Z,2.47
2023-04-13T22:56:51.334Z,2.30
2023-04-13T23:02:44.820Z,2.10
2023-04-13T23:08:39.961Z,3.23
2023-04-13T23:14:33.502Z,2.60
2023-04-13T23:20:29.162Z,3.07
2023-04-13T23:26:24.031Z,2.50
2023-04-13T23:32:17.063Z,2.77
2023-04-13T23:38:10.700Z,2.50
2023-04-13T23:44:05.839Z,2.53
2023-04-13T23:49:58.834Z,2.83
2023-04-13T23:55:52.355Z,3.23
